createdAt,value
2023-01-17T00:00:51.620Z,78.95
2023-01-17T00:03:30.755Z,79.08
2023-01-17T00:06:26.385Z,79.22
2023-01-17T00:09:18.432Z,79.51
2023-01-17T00:12:10.909Z,79.50
2023-01-17T00:14:58.836Z,79.60
2023-01-17T00:17:31.042Z,79.70
2023-01-17T00:20:19.999Z,79.88
2023-01-17T00:23:10.787Z,79.83
2023-01-17T00:26:00.957Z,80.02
2023-01-17T00:28:32.060Z,80.23
2023-01-17T00:31:05.571Z,80.34
2023-01-17T00:33:39.807Z,80.34
2023-01-17T00:36:18.953Z,80.60
2023-01-17T00:38:49.924Z,80.66
2023-01-17T00:41:30.965Z,80.98
2023-01-17T00:44:27.032Z,80.93
2023-01-17T00:47:45.018Z,81.14
2023-01-17T00:50:43.280Z,81.21
2023-01-17T00:53:46.646Z,81.34
2023-01-17T00:56:38.657Z,81.25
2023-01-17T00:59:25.568Z,81.59
2023-01-17T01:02:32.045Z,81.47
2023-01-17T01:05:20.292Z,81.67
2023-01-17T01:08:08.010Z,81.56
2023-01-17T01:10:54.914Z,81.63
2023-01-17T01:13:46.121Z,81.66
2023-01-17T01:16:33.731Z,81.90
2023-01-17T01:19:22.141Z,81.91
2023-01-17T01:22:11.538Z,81.97
2023-01-17T01:25:21.208Z,81.86
2023-01-17T01:28:10.063Z,81.85
2023-01-17T01:30:57.234Z,82.03
2023-01-17T01:33:25.067Z,82.17
2023-01-17T01:35:55.187Z,82.13
2023-01-17T01:38:25.295Z,82.03
2023-01-17T01:40:55.761Z,82.12
2023-01-17T01:43:41.836Z,82.15
2023-01-17T01:46:17.294Z,82.10
2023-01-17T01:49:28.896Z,82.00
2023-01-17T01:52:02.240Z,81.93
2023-01-17T01:54:37.340Z,81.75
2023-01-17T01:57:09.407Z,81.69
2023-01-17T01:59:42.597Z,81.50
2023-01-17T02:02:11.024Z,81.59
2023-01-17T02:04:39.148Z,81.31
2023-01-17T02:07:12.672Z,81.17
2023-01-17T02:09:40.781Z,81.02
2023-01-17T02:12:09.214Z,80.83
2023-01-17T02:14:36.992Z,80.58
2023-01-17T02:17:36.456Z,80.50
2023-01-17T02:20:32.053Z,80.44
2023-01-17T02:23:36.525Z,80.07
2023-01-17T02:26:35.456Z,79.99
2023-01-17T02:29:29.548Z,79.71
2023-01-17T02:32:13.208Z,79.61
2023-01-17T02:35:20.422Z,79.60
2023-01-17T02:38:06.095Z,79.37
2023-01-17T02:40:58.047Z,79.19
2023-01-17T02:43:26.603Z,79.13
2023-01-17T02:45:54.571Z,79.05
2023-01-17T02:48:26.139Z,78.83
2023-01-17T02:51:21.168Z,78.92
2023-01-17T02:53:54.230Z,78.75
2023-01-17T02:57:03.425Z,78.60
2023-01-17T02:59:40.560Z,78.58
2023-01-17T03:03:06.831Z,78.66
2023-01-17T03:05:43.132Z,78.76
2023-01-17T03:08:13.012Z,78.55
2023-01-17T03:10:42.521Z,78.49
2023-01-17T03:13:10.321Z,78.28
2023-01-17T03:15:40.161Z,78.46
2023-01-17T03:18:14.645Z,78.36
2023-01-17T03:20:42.906Z,78.09
2023-01-17T03:23:12.796Z,78.20
2023-01-17T03:25:40.557Z,78.02
2023-01-17T03:28:08.368Z,77.77
2023-01-17T03:30:36.225Z,77.80
2023-01-17T03:33:04.068Z,77.38
2023-01-17T03:35:32.042Z,77.17
2023-01-17T03:37:59.903Z,76.96
2023-01-17T03:40:27.648Z,76.76
2023-01-17T03:42:55.816Z,76.56
2023-01-17T03:45:23.784Z,76.48
2023-01-17T03:47:51.734Z,76.26
2023-01-17T03:50:19.946Z,76.29
2023-01-17T03:52:47.923Z,76.27
2023-01-17T03:55:15.668Z,76.37
2023-01-17T03:57:43.648Z,76.30
2023-01-17T04:00:12.161Z,76.25
2023-01-17T04:02:39.909Z,76.48
2023-01-17T04:05:08.553Z,76.48
2023-01-17T04:07:36.356Z,76.52
2023-01-17T04:10:04.546Z,76.36
2023-01-17T04:12:33.253Z,76.56
2023-01-17T04:15:01.156Z,76.68
2023-01-17T04:17:29.009Z,76.63
2023-01-17T04:19:57.034Z,76.77
2023-01-17T04:22:25.000Z,76.58
2023-01-17T04:24:52.711Z,76.52
2023-01-17T04:27:22.047Z,76.73
2023-01-17T04:29:49.938Z,76.68
2023-01-17T04:32:17.756Z,76.71
2023-01-17T04:34:45.683Z,76.83
2023-01-17T04:37:13.614Z,76.88
2023-01-17T04:39:41.430Z,77.12
2023-01-17T04:42:09.417Z,77.00
2023-01-17T04:44:37.403Z,77.08
2023-01-17T04:47:05.196Z,77.19
2023-01-17T04:49:33.055Z,77.19
2023-01-17T04:52:00.916Z,77.47
2023-01-17T04:54:28.581Z,77.60
2023-01-17T04:56:56.470Z,77.50
2023-01-17T04:59:24.865Z,77.58
2023-01-17T05:01:52.601Z,77.67
2023-01-17T05:04:20.467Z,77.79
2023-01-17T05:06:48.235Z,77.77
2023-01-17T05:09:15.938Z,77.91
2023-01-17T05:11:46.058Z,78.00
2023-01-17T05:14:13.830Z,77.92
2023-01-17T05:16:41.649Z,77.88
2023-01-17T05:19:10.448Z,77.64
2023-01-17T05:21:38.264Z,77.68
2023-01-17T05:24:06.401Z,77.62
2023-01-17T05:26:34.170Z,77.93
2023-01-17T05:29:01.939Z,77.83
2023-01-17T05:31:29.729Z,77.75
2023-01-17T05:33:57.664Z,77.62
2023-01-17T05:36:25.433Z,77.79
2023-01-17T05:38:53.140Z,77.59
2023-01-17T05:41:21.225Z,77.66
2023-01-17T05:43:49.102Z,77.66
2023-01-17T05:46:18.111Z,77.73
2023-01-17T05:48:46.040Z,77.64
2023-01-17T05:51:13.920Z,77.58
2023-01-17T05:53:41.597Z,77.57
2023-01-17T05:56:09.394Z,77.36
2023-01-17T05:58:37.084Z,77.36
2023-01-17T06:01:04.850Z,76.87
2023-01-17T06:03:32.747Z,76.81
2023-01-17T06:06:00.479Z,76.54
2023-01-17T06:08:28.172Z,76.41
2023-01-17T06:10:59.441Z,76.01
2023-01-17T06:13:27.418Z,75.65
2023-01-17T06:15:57.768Z,75.41
2023-01-17T06:18:25.564Z,75.37
2023-01-17T06:20:56.752Z,75.15
2023-01-17T06:23:24.826Z,74.88
2023-01-17T06:25:52.659Z,74.66
2023-01-17T06:28:22.916Z,74.59
2023-01-17T06:30:50.775Z,74.52
2023-01-17T06:33:18.638Z,74.23
2023-01-17T06:35:50.907Z,74.15
2023-01-17T06:38:19.826Z,73.98
2023-01-17T06:40:48.166Z,74.04
2023-01-17T06:43:16.212Z,73.72
2023-01-17T06:45:43.904Z,73.83
2023-01-17T06:48:11.780Z,73.71
2023-01-17T06:50:39.609Z,73.62
2023-01-17T06:53:07.672Z,73.74
2023-01-17T06:55:39.533Z,73.63
2023-01-17T06:58:09.666Z,73.57
2023-01-17T07:00:40.589Z,73.61
2023-01-17T07:03:24.443Z,73.40
2023-01-17T07:05:53.210Z,73.18
2023-01-17T07:08:21.043Z,73.23
2023-01-17T07:10:49.337Z,73.15
2023-01-17T07:13:17.204Z,73.19
2023-01-17T07:15:44.932Z,73.25
2023-01-17T07:18:12.770Z,73.24
2023-01-17T07:20:43.880Z,72.89
2023-01-17T07:23:14.083Z,72.91
2023-01-17T07:25:44.498Z,72.57
2023-01-17T07:28:12.309Z,72.25
2023-01-17T07:30:40.168Z,71.96
2023-01-17T07:33:08.783Z,71.59
2023-01-17T07:35:39.283Z,71.47
2023-01-17T07:38:11.457Z,71.00
2023-01-17T07:40:42.439Z,70.79
2023-01-17T07:43:16.436Z,70.45
2023-01-17T07:45:50.733Z,70.35
2023-01-17T07:48:20.672Z,70.34
2023-01-17T07:50:56.665Z,69.86
2023-01-17T07:53:27.037Z,69.85
2023-01-17T07:55:55.272Z,69.66
2023-01-17T07:58:23.161Z,69.53
2023-01-17T08:00:53.104Z,69.71
2023-01-17T08:03:20.986Z,69.70
2023-01-17T08:05:59.958Z,69.28
2023-01-17T08:08:28.969Z,69.32
2023-01-17T08:10:56.819Z,69.34
2023-01-17T08:13:24.957Z,69.39
2023-01-17T08:15:54.459Z,69.15
2023-01-17T08:18:22.385Z,69.00
2023-01-17T08:20:51.299Z,68.63
2023-01-17T08:23:19.078Z,68.97
2023-01-17T08:25:46.867Z,68.81
2023-01-17T08:28:15.958Z,68.64
2023-01-17T08:30:43.720Z,68.56
2023-01-17T08:33:11.652Z,68.47
2023-01-17T08:35:40.247Z,68.51
2023-01-17T08:38:08.912Z,67.95
2023-01-17T08:40:36.987Z,67.82
2023-01-17T08:43:04.716Z,67.20
2023-01-17T08:45:32.724Z,67.11
2023-01-17T08:48:00.641Z,66.61
2023-01-17T08:50:28.479Z,66.45
2023-01-17T08:53:01.045Z,66.41
2023-01-17T08:55:30.054Z,66.20
2023-01-17T08:57:58.257Z,66.44
2023-01-17T09:00:27.208Z,65.91
2023-01-17T09:02:55.145Z,66.55
2023-01-17T09:05:23.245Z,66.13
2023-01-17T09:07:51.306Z,66.14
2023-01-17T09:10:19.241Z,65.42
2023-01-17T09:12:47.070Z,65.01
2023-01-17T09:15:17.821Z,64.90
2023-01-17T09:17:46.367Z,64.56
2023-01-17T09:20:14.547Z,64.18
2023-01-17T09:22:42.360Z,63.77
2023-01-17T09:25:10.417Z,63.66
2023-01-17T09:27:38.231Z,63.25
2023-01-17T09:30:06.966Z,63.22
2023-01-17T09:32:35.094Z,62.88
2023-01-17T09:35:05.267Z,62.99
2023-01-17T09:37:33.022Z,61.76
2023-01-17T09:40:01.149Z,60.06
2023-01-17T09:42:38.267Z,59.03
2023-01-17T09:45:14.886Z,57.56
2023-01-17T09:47:49.527Z,55.75
2023-01-17T09:50:37.921Z,55.00
2023-01-17T09:53:12.524Z,53.89
2023-01-17T09:55:53.230Z,54.88
2023-01-17T09:58:30.104Z,53.78
2023-01-17T10:01:03.624Z,53.83
2023-01-17T10:03:43.337Z,54.08
2023-01-17T10:06:43.597Z,54.02
2023-01-17T10:09:23.646Z,53.93
2023-01-17T10:12:13.890Z,54.09
2023-01-17T10:14:54.901Z,54.10
2023-01-17T10:17:49.061Z,54.67
2023-01-17T10:20:50.837Z,53.52
2023-01-17T10:23:40.130Z,54.02
2023-01-17T10:26:17.376Z,53.89
2023-01-17T10:28:51.637Z,54.31
2023-01-17T10:31:24.851Z,54.23
2023-01-17T10:33:57.832Z,53.64
2023-01-17T10:36:30.493Z,53.93
2023-01-17T10:39:04.976Z,53.48
2023-01-17T10:41:37.510Z,53.38
2023-01-17T10:44:24.588Z,53.87
2023-01-17T10:47:14.793Z,53.24
2023-01-17T10:49:47.236Z,52.91
2023-01-17T10:52:34.088Z,53.09
2023-01-17T10:55:29.883Z,52.48
2023-01-17T10:58:01.448Z,52.66
2023-01-17T11:01:08.696Z,52.51
2023-01-17T11:03:37.121Z,53.28
2023-01-17T11:06:25.315Z,53.68
2023-01-17T11:08:58.332Z,53.24
2023-01-17T11:11:32.039Z,53.12
2023-01-17T11:14:03.523Z,53.48
2023-01-17T11:16:32.091Z,53.67
2023-01-17T11:19:27.811Z,53.46
2023-01-17T11:22:01.592Z,53.57
2023-01-17T11:24:52.893Z,53.50
2023-01-17T11:27:33.554Z,53.53
2023-01-17T11:30:09.232Z,53.76
2023-01-17T11:32:37.043Z,53.12
2023-01-17T11:35:25.442Z,52.81
2023-01-17T11:38:02.537Z,52.67
2023-01-17T11:40:36.189Z,52.79
2023-01-17T11:43:14.336Z,52.17
2023-01-17T11:45:42.193Z,51.98
2023-01-17T11:48:13.033Z,51.82
2023-01-17T11:50:57.151Z,51.97
2023-01-17T11:53:38.429Z,51.65
2023-01-17T11:56:09.836Z,51.58
2023-01-17T11:58:43.579Z,52.02
2023-01-17T12:01:37.245Z,52.14
2023-01-17T12:04:18.336Z,52.28
2023-01-17T12:07:05.120Z,52.34
2023-01-17T12:10:01.351Z,52.29
2023-01-17T12:12:56.729Z,51.70
2023-01-17T12:15:53.159Z,50.89
2023-01-17T12:18:43.008Z,50.70
2023-01-17T12:21:22.796Z,49.34
2023-01-17T12:24:25.827Z,49.78
2023-01-17T12:27:06.928Z,49.87
2023-01-17T12:29:46.432Z,48.95
2023-01-17T12:32:17.004Z,49.17
2023-01-17T12:34:55.024Z,48.62
2023-01-17T12:37:44.223Z,48.68
2023-01-17T12:40:33.500Z,49.11
2023-01-17T12:43:38.040Z,49.02
2023-01-17T12:46:16.992Z,48.89
2023-01-17T12:48:45.047Z,49.16
2023-01-17T12:51:20.441Z,48.69
2023-01-17T12:54:06.382Z,48.84
2023-01-17T12:56:43.734Z,48.06
2023-01-17T12:59:37.833Z,47.91
2023-01-17T13:02:22.957Z,48.09
2023-01-17T13:04:59.895Z,46.21
2023-01-17T13:07:46.244Z,46.31
2023-01-17T13:10:41.567Z,46.14
2023-01-17T13:13:26.824Z,45.70
2023-01-17T13:16:05.010Z,46.39
2023-01-17T13:18:35.725Z,45.15
2023-01-17T13:21:25.504Z,44.85
2023-01-17T13:23:59.540Z,45.19
2023-01-17T13:26:27.791Z,44.30
2023-01-17T13:29:08.578Z,44.40
2023-01-17T13:31:53.765Z,43.71
2023-01-17T13:34:38.822Z,44.13
2023-01-17T13:37:35.193Z,43.48
2023-01-17T13:40:29.782Z,43.89
2023-01-17T13:43:00.540Z,44.03
2023-01-17T13:45:32.174Z,44.36
2023-01-17T13:48:12.307Z,44.47
2023-01-17T13:51:03.554Z,44.56
2023-01-17T13:53:35.256Z,44.65
2023-01-17T13:56:21.997Z,44.74
2023-01-17T13:58:54.861Z,44.51
2023-01-17T14:01:23.275Z,44.45
2023-01-17T14:03:51.683Z,44.31
2023-01-17T14:06:30.644Z,44.56
2023-01-17T14:09:10.711Z,44.70
2023-01-17T14:11:59.875Z,44.50
2023-01-17T14:14:39.642Z,44.34
2023-01-17T14:17:16.588Z,43.64
2023-01-17T14:19:46.800Z,43.31
2023-01-17T14:22:23.762Z,42.98
2023-01-17T14:25:10.084Z,43.09
2023-01-17T14:28:03.230Z,42.81
2023-01-17T14:30:33.765Z,43.97
2023-01-17T14:33:01.679Z,43.78
2023-01-17T14:35:34.017Z,43.51
2023-01-17T14:38:03.162Z,43.11
2023-01-17T14:40:34.472Z,43.37
2023-01-17T14:43:20.338Z,43.22
2023-01-17T14:45:49.231Z,43.07
2023-01-17T14:48:20.627Z,43.34
2023-01-17T14:50:50.675Z,44.14
2023-01-17T14:53:22.028Z,44.32
2023-01-17T14:55:59.675Z,44.52
2023-01-17T14:58:31.855Z,44.81
2023-01-17T15:01:07.205Z,45.22
2023-01-17T15:04:04.686Z,45.50
2023-01-17T15:06:41.859Z,45.75
2023-01-17T15:09:18.461Z,45.95
2023-01-17T15:11:49.013Z,46.25
2023-01-17T15:14:24.542Z,46.58
2023-01-17T15:16:52.397Z,46.81
2023-01-17T15:19:21.952Z,47.00
2023-01-17T15:21:51.460Z,47.13
2023-01-17T15:24:25.317Z,47.35
2023-01-17T15:26:53.511Z,47.58
2023-01-17T15:29:24.184Z,47.61
2023-01-17T15:31:54.726Z,48.25
2023-01-17T15:34:59.395Z,48.03
2023-01-17T15:37:37.614Z,48.24
2023-01-17T15:40:16.797Z,48.41
2023-01-17T15:42:48.080Z,48.63
2023-01-17T15:45:23.392Z,48.76
2023-01-17T15:47:51.364Z,48.99
2023-01-17T15:50:27.973Z,49.16
2023-01-17T15:53:01.827Z,49.31
2023-01-17T15:55:35.364Z,49.35
2023-01-17T15:58:05.299Z,49.74
2023-01-17T16:00:39.269Z,49.47
2023-01-17T16:03:19.645Z,49.72
2023-01-17T16:05:49.955Z,50.01
2023-01-17T16:08:17.535Z,50.01
2023-01-17T16:10:45.563Z,50.30
2023-01-17T16:13:13.753Z,50.29
2023-01-17T16:15:41.528Z,50.52
2023-01-17T16:18:18.152Z,50.57
2023-01-17T16:20:55.263Z,50.66
2023-01-17T16:23:23.430Z,50.91
2023-01-17T16:25:51.541Z,50.98
2023-01-17T16:28:19.749Z,51.18
2023-01-17T16:30:49.503Z,51.24
2023-01-17T16:33:17.356Z,51.20
2023-01-17T16:35:45.524Z,51.33
2023-01-17T16:38:16.147Z,51.35
2023-01-17T16:40:45.869Z,51.32
2023-01-17T16:43:17.514Z,51.56
2023-01-17T16:45:47.705Z,51.68
2023-01-17T16:48:17.188Z,51.73
2023-01-17T16:50:50.845Z,51.79
2023-01-17T16:53:24.657Z,51.91
2023-01-17T16:55:57.401Z,52.03
2023-01-17T16:58:25.332Z,52.05
2023-01-17T17:00:55.252Z,52.29
2023-01-17T17:03:23.515Z,52.11
2023-01-17T17:06:00.976Z,52.44
2023-01-17T17:08:29.522Z,52.63
2023-01-17T17:11:13.260Z,52.72
2023-01-17T17:13:43.296Z,52.89
2023-01-17T17:16:18.876Z,53.04
2023-01-17T17:18:55.143Z,53.09
2023-01-17T17:21:23.080Z,53.30
2023-01-17T17:23:59.620Z,53.46
2023-01-17T17:26:31.065Z,53.68
2023-01-17T17:28:59.054Z,53.65
2023-01-17T17:31:27.278Z,53.84
2023-01-17T17:34:02.480Z,53.77
2023-01-17T17:36:31.744Z,53.86
2023-01-17T17:39:02.221Z,53.82
2023-01-17T17:41:33.194Z,53.83
2023-01-17T17:44:02.621Z,53.99
2023-01-17T17:46:31.076Z,54.12
2023-01-17T17:48:59.416Z,54.13
2023-01-17T17:51:30.420Z,54.10
2023-01-17T17:54:03.269Z,54.51
2023-01-17T17:56:32.897Z,54.64
2023-01-17T17:59:01.748Z,54.62
2023-01-17T18:01:29.970Z,54.52
2023-01-17T18:04:02.124Z,54.54
2023-01-17T18:06:30.912Z,54.55
2023-01-17T18:08:58.815Z,54.62
2023-01-17T18:11:27.926Z,54.62
2023-01-17T18:13:58.582Z,54.65
2023-01-17T18:16:30.331Z,54.85
2023-01-17T18:18:59.106Z,54.81
2023-01-17T18:21:29.594Z,54.87
2023-01-17T18:24:00.484Z,55.20
2023-01-17T18:26:34.755Z,55.24
2023-01-17T18:29:04.390Z,55.40
2023-01-17T18:31:32.652Z,55.65
2023-01-17T18:34:06.271Z,55.59
2023-01-17T18:36:37.067Z,55.86
2023-01-17T18:39:11.718Z,55.78
2023-01-17T18:41:39.878Z,56.06
2023-01-17T18:44:08.316Z,55.85
2023-01-17T18:46:37.132Z,55.87
2023-01-17T18:49:05.246Z,55.96
2023-01-17T18:51:34.560Z,55.89
2023-01-17T18:54:06.999Z,56.23
2023-01-17T18:56:35.496Z,55.91
2023-01-17T18:59:05.965Z,56.08
2023-01-17T19:01:36.061Z,55.95
2023-01-17T19:04:05.720Z,55.77
2023-01-17T19:06:37.279Z,56.14
2023-01-17T19:09:07.968Z,56.18
2023-01-17T19:11:39.136Z,55.86
2023-01-17T19:14:07.461Z,55.98
2023-01-17T19:16:39.577Z,55.99
2023-01-17T19:19:14.056Z,56.02
2023-01-17T19:21:42.248Z,56.10
2023-01-17T19:24:13.182Z,56.08
2023-01-17T19:26:42.951Z,56.13
2023-01-17T19:29:11.110Z,56.56
2023-01-17T19:31:42.798Z,56.32
2023-01-17T19:34:13.785Z,56.71
2023-01-17T19:36:42.687Z,56.76
2023-01-17T19:39:10.707Z,56.89
2023-01-17T19:41:43.737Z,57.05
2023-01-17T19:44:13.910Z,57.19
2023-01-17T19:46:41.737Z,57.23
2023-01-17T19:49:10.512Z,57.48
2023-01-17T19:51:39.664Z,57.39
2023-01-17T19:54:08.470Z,57.57
2023-01-17T19:56:36.792Z,57.61
2023-01-17T19:59:04.771Z,57.67
2023-01-17T20:01:34.025Z,57.71
2023-01-17T20:04:03.611Z,57.91
2023-01-17T20:06:34.347Z,57.82
2023-01-17T20:09:03.019Z,58.01
2023-01-17T20:11:31.014Z,58.23
2023-01-17T20:13:59.997Z,58.20
2023-01-17T20:16:30.314Z,58.47
2023-01-17T20:18:59.553Z,58.52
2023-01-17T20:21:28.265Z,58.79
2023-01-17T20:23:57.573Z,59.09
2023-01-17T20:26:36.888Z,58.90
2023-01-17T20:29:10.254Z,59.21
2023-01-17T20:31:40.693Z,59.02
2023-01-17T20:34:11.807Z,59.16
2023-01-17T20:36:41.893Z,59.33
2023-01-17T20:39:13.012Z,59.40
2023-01-17T20:41:43.179Z,59.64
2023-01-17T20:44:13.984Z,59.77
2023-01-17T20:46:42.733Z,59.86
2023-01-17T20:49:15.320Z,59.95
2023-01-17T20:51:44.708Z,60.23
2023-01-17T20:54:14.992Z,60.37
2023-01-17T20:56:43.656Z,60.29
2023-01-17T20:59:17.442Z,60.40
2023-01-17T21:01:45.995Z,60.69
2023-01-17T21:04:14.927Z,60.79
2023-01-17T21:06:44.204Z,60.71
2023-01-17T21:09:14.603Z,60.45
2023-01-17T21:11:43.040Z,60.84
2023-01-17T21:14:11.111Z,60.99
2023-01-17T21:16:39.321Z,61.41
2023-01-17T21:19:11.896Z,61.42
2023-01-17T21:21:40.070Z,62.09
2023-01-17T21:24:08.611Z,61.97
2023-01-17T21:26:38.917Z,62.23
2023-01-17T21:29:07.184Z,61.97
2023-01-17T21:31:36.816Z,62.39
2023-01-17T21:34:05.906Z,62.27
2023-01-17T21:36:39.456Z,62.48
2023-01-17T21:39:11.924Z,62.26
2023-01-17T21:41:41.229Z,62.62
2023-01-17T21:44:13.094Z,62.85
2023-01-17T21:46:41.908Z,62.77
2023-01-17T21:49:12.060Z,62.93
2023-01-17T21:51:55.437Z,63.25
2023-01-17T21:54:44.430Z,63.05
2023-01-17T21:57:33.698Z,63.36
2023-01-17T22:00:01.508Z,63.32
2023-01-17T22:02:29.424Z,63.76
2023-01-17T22:04:57.278Z,63.30
2023-01-17T22:07:27.115Z,63.68
2023-01-17T22:09:54.969Z,63.62
2023-01-17T22:12:22.707Z,63.80
2023-01-17T22:14:50.394Z,63.78
2023-01-17T22:17:18.262Z,63.89
2023-01-17T22:19:46.109Z,64.05
2023-01-17T22:22:13.804Z,64.37
2023-01-17T22:24:42.030Z,64.54
2023-01-17T22:27:10.503Z,64.92
2023-01-17T22:29:38.358Z,65.36
2023-01-17T22:32:06.292Z,65.49
2023-01-17T22:34:33.988Z,65.42
2023-01-17T22:37:03.985Z,65.80
2023-01-17T22:39:32.037Z,65.90
2023-01-17T22:41:59.767Z,65.82
2023-01-17T22:44:27.430Z,65.89
2023-01-17T22:46:55.117Z,65.90
2023-01-17T22:49:23.620Z,65.97
2023-01-17T22:51:51.454Z,66.24
2023-01-17T22:54:19.540Z,66.35
2023-01-17T22:56:48.832Z,66.47
2023-01-17T22:59:16.521Z,66.40
2023-01-17T23:01:44.595Z,66.48
2023-01-17T23:04:14.305Z,66.77
2023-01-17T23:06:42.303Z,66.82
2023-01-17T23:09:12.697Z,66.55
2023-01-17T23:11:43.415Z,66.66
2023-01-17T23:14:22.767Z,66.79
2023-01-17T23:17:14.178Z,66.79
2023-01-17T23:19:48.215Z,66.93
2023-01-17T23:22:24.073Z,67.26
2023-01-17T23:25:04.518Z,67.13
2023-01-17T23:27:52.452Z,67.18
2023-01-17T23:30:25.099Z,67.37
2023-01-17T23:32:55.571Z,67.45
2023-01-17T23:35:29.152Z,67.89
2023-01-17T23:38:16.267Z,67.88
2023-01-17T23:41:08.100Z,68.17
2023-01-17T23:43:36.506Z,68.27
2023-01-17T23:46:05.449Z,68.23
2023-01-17T23:48:33.121Z,68.58
2023-01-17T23:51:08.584Z,68.21
2023-01-17T23:53:38.621Z,68.39
2023-01-17T23:56:13.789Z,68.14
2023-01-17T23:58:41.847Z,68.19
